createdAt,value
2022-12-14T00:01:41.495Z,7.63
2022-12-14T00:04:12.934Z,7.33
2022-12-14T00:06:40.628Z,8.53
2022-12-14T00:09:08.305Z,8.00
2022-12-14T00:11:36.344Z,7.93
2022-12-14T00:14:06.095Z,8.17
2022-12-14T00:16:35.157Z,7.93
2022-12-14T00:19:05.227Z,9.03
2022-12-14T00:21:32.894Z,8.30
2022-12-14T00:24:00.819Z,8.60
2022-12-14T00:26:30.900Z,8.83
2022-12-14T00:28:59.320Z,8.83
2022-12-14T00:31:28.518Z,8.33
2022-12-14T00:33:56.368Z,8.43
2022-12-14T00:36:24.547Z,8.17
2022-12-14T00:38:52.358Z,7.93
2022-12-14T00:41:20.035Z,9.00
2022-12-14T00:43:49.628Z,8.70
2022-12-14T00:46:17.977Z,8.33
2022-12-14T00:48:47.518Z,9.37
2022-12-14T00:51:15.741Z,8.77
2022-12-14T00:53:45.487Z,9.10
2022-12-14T00:56:13.470Z,8.00
2022-12-14T00:58:41.185Z,7.83
2022-12-14T01:01:12.477Z,8.20
2022-12-14T01:03:40.477Z,8.97
2022-12-14T01:06:14.331Z,8.23
2022-12-14T01:08:42.014Z,7.87
2022-12-14T01:11:10.363Z,8.13
2022-12-14T01:13:38.885Z,7.20
2022-12-14T01:16:08.027Z,8.03
2022-12-14T01:18:36.203Z,7.57
2022-12-14T01:21:13.321Z,7.03
2022-12-14T01:23:41.071Z,7.07
2022-12-14T01:26:08.860Z,7.33
2022-12-14T01:28:36.626Z,7.10
2022-12-14T01:31:09.453Z,7.73
2022-12-14T01:33:37.365Z,6.63
2022-12-14T01:36:07.085Z,7.77
2022-12-14T01:38:36.249Z,7.57
2022-12-14T01:41:04.467Z,6.97
2022-12-14T01:43:48.826Z,7.23
2022-12-14T01:46:20.144Z,7.50
2022-12-14T01:48:48.913Z,7.37
2022-12-14T01:51:16.752Z,6.40
2022-12-14T01:53:46.209Z,7.00
2022-12-14T01:56:14.039Z,7.67
2022-12-14T01:58:41.727Z,7.57
2022-12-14T02:01:11.256Z,7.80
2022-12-14T02:03:41.492Z,7.20
2022-12-14T02:06:11.720Z,6.70
2022-12-14T02:08:40.656Z,7.40
2022-12-14T02:11:09.758Z,7.10
2022-12-14T02:13:39.896Z,6.83
2022-12-14T02:16:08.333Z,6.13
2022-12-14T02:18:36.152Z,6.37
2022-12-14T02:21:16.093Z,6.87
2022-12-14T02:24:19.339Z,7.40
2022-12-14T02:27:05.566Z,7.10
2022-12-14T02:29:50.005Z,7.13
2022-12-14T02:32:27.551Z,7.07
2022-12-14T02:34:59.627Z,7.10
2022-12-14T02:37:34.005Z,6.80
2022-12-14T02:40:13.740Z,6.93
2022-12-14T02:42:46.955Z,6.97
2022-12-14T02:45:19.886Z,6.50
2022-12-14T02:47:54.392Z,6.87
2022-12-14T02:50:24.764Z,7.10
2022-12-14T02:52:58.295Z,7.60
2022-12-14T02:55:30.538Z,7.80
2022-12-14T02:58:01.531Z,7.90
2022-12-14T03:00:32.237Z,7.73
2022-12-14T03:03:00.729Z,7.67
2022-12-14T03:05:28.662Z,8.10
2022-12-14T03:07:58.271Z,7.70
2022-12-14T03:10:39.147Z,7.53
2022-12-14T03:13:12.973Z,7.70
2022-12-14T03:15:44.531Z,8.60
2022-12-14T03:18:14.035Z,6.93
2022-12-14T03:20:43.453Z,7.07
2022-12-14T03:23:13.915Z,7.00
2022-12-14T03:25:44.349Z,7.23
2022-12-14T03:28:15.645Z,7.53
2022-12-14T03:31:03.053Z,7.33
2022-12-14T03:33:32.555Z,7.40
2022-12-14T03:36:03.611Z,6.20
2022-12-14T03:38:35.066Z,6.50
2022-12-14T03:41:12.436Z,6.43
2022-12-14T03:43:49.666Z,6.57
2022-12-14T03:46:23.737Z,5.77
2022-12-14T03:48:53.260Z,6.10
2022-12-14T03:51:24.139Z,6.83
2022-12-14T03:53:59.995Z,6.03
2022-12-14T03:56:35.798Z,5.90
2022-12-14T03:59:07.717Z,5.93
2022-12-14T04:01:42.198Z,5.77
2022-12-14T04:04:13.014Z,6.07
2022-12-14T04:06:43.252Z,5.77
2022-12-14T04:09:19.642Z,5.83
2022-12-14T04:12:08.242Z,6.00
2022-12-14T04:14:56.118Z,5.93
2022-12-14T04:17:45.426Z,6.00
2022-12-14T04:20:17.964Z,6.47
2022-12-14T04:22:49.355Z,6.30
2022-12-14T04:25:37.391Z,6.40
2022-12-14T04:28:06.938Z,6.33
2022-12-14T04:30:35.615Z,6.97
2022-12-14T04:33:27.387Z,6.30
2022-12-14T04:35:57.520Z,5.80
2022-12-14T04:38:28.550Z,5.70
2022-12-14T04:40:58.124Z,6.23
2022-12-14T04:43:31.008Z,6.20
2022-12-14T04:46:00.936Z,6.80
2022-12-14T04:48:33.572Z,6.40
2022-12-14T04:51:05.698Z,6.23
2022-12-14T04:53:35.381Z,6.27
2022-12-14T04:56:10.763Z,6.10
2022-12-14T04:58:39.362Z,7.17
2022-12-14T05:01:20.055Z,6.67
2022-12-14T05:03:52.858Z,6.17
2022-12-14T05:06:25.637Z,6.70
2022-12-14T05:09:18.293Z,6.53
2022-12-14T05:11:53.794Z,6.27
2022-12-14T05:14:26.018Z,5.53
2022-12-14T05:16:53.876Z,5.90
2022-12-14T05:19:26.323Z,6.23
2022-12-14T05:21:54.674Z,5.73
2022-12-14T05:24:22.424Z,5.47
2022-12-14T05:26:50.078Z,5.80
2022-12-14T05:29:17.804Z,5.60
2022-12-14T05:31:49.254Z,5.97
2022-12-14T05:34:17.680Z,5.63
2022-12-14T05:36:46.676Z,6.07
2022-12-14T05:39:14.740Z,5.87
2022-12-14T05:41:42.601Z,5.00
2022-12-14T05:44:10.323Z,5.30
2022-12-14T05:46:38.042Z,5.80
2022-12-14T05:49:05.719Z,5.40
2022-12-14T05:51:33.420Z,5.40
2022-12-14T05:54:02.478Z,5.57
2022-12-14T05:56:30.131Z,5.07
2022-12-14T05:58:57.995Z,4.90
2022-12-14T06:01:26.051Z,5.70
2022-12-14T06:03:54.206Z,5.73
2022-12-14T06:06:21.888Z,5.47
2022-12-14T06:08:49.544Z,5.67
2022-12-14T06:11:20.508Z,4.70
2022-12-14T06:13:48.331Z,5.30
2022-12-14T06:16:18.618Z,5.03
2022-12-14T06:18:47.817Z,4.90
2022-12-14T06:21:16.727Z,4.93
2022-12-14T06:23:44.622Z,4.97
2022-12-14T06:26:13.294Z,5.17
2022-12-14T06:28:42.520Z,6.03
2022-12-14T06:31:15.648Z,6.03
2022-12-14T06:33:43.670Z,6.43
2022-12-14T06:36:18.777Z,6.43
2022-12-14T06:38:46.571Z,6.00
2022-12-14T06:41:14.236Z,6.60
2022-12-14T06:43:43.272Z,6.63
2022-12-14T06:46:15.399Z,5.80
2022-12-14T06:48:43.747Z,5.73
2022-12-14T06:51:11.470Z,5.87
2022-12-14T06:53:39.214Z,5.43
2022-12-14T06:56:08.356Z,4.93
2022-12-14T06:58:39.148Z,5.17
2022-12-14T07:01:10.140Z,5.50
2022-12-14T07:03:38.175Z,4.50
2022-12-14T07:06:06.537Z,5.10
2022-12-14T07:08:35.908Z,4.67
2022-12-14T07:11:04.839Z,4.73
2022-12-14T07:13:32.743Z,5.30
2022-12-14T07:16:01.005Z,4.80
2022-12-14T07:18:30.438Z,5.13
2022-12-14T07:20:59.045Z,5.60
2022-12-14T07:23:28.218Z,5.60
2022-12-14T07:26:02.057Z,6.67
2022-12-14T07:28:30.303Z,6.70
2022-12-14T07:30:58.788Z,7.33
2022-12-14T07:33:30.706Z,6.43
2022-12-14T07:36:05.867Z,6.30
2022-12-14T07:38:34.204Z,5.93
2022-12-14T07:41:10.661Z,5.60
2022-12-14T07:43:39.181Z,5.70
2022-12-14T07:46:08.216Z,5.50
2022-12-14T07:48:38.135Z,5.40
2022-12-14T07:51:07.506Z,5.27
2022-12-14T07:53:35.991Z,5.33
2022-12-14T07:56:04.874Z,5.33
2022-12-14T07:58:33.403Z,4.80
2022-12-14T08:01:14.595Z,5.13
2022-12-14T08:03:45.403Z,5.27
2022-12-14T08:06:13.475Z,6.00
2022-12-14T08:08:41.527Z,5.63
2022-12-14T08:11:09.666Z,5.33
2022-12-14T08:13:38.841Z,5.77
2022-12-14T08:16:08.084Z,6.10
2022-12-14T08:18:35.879Z,6.20
2022-12-14T08:21:06.184Z,6.70
2022-12-14T08:23:34.472Z,6.27
2022-12-14T08:26:03.057Z,6.90
2022-12-14T08:28:31.996Z,6.43
2022-12-14T08:31:04.830Z,6.80
2022-12-14T08:33:33.959Z,6.47
2022-12-14T08:36:08.460Z,6.70
2022-12-14T08:38:36.275Z,6.57
2022-12-14T08:41:04.810Z,7.23
2022-12-14T08:43:33.042Z,7.17
2022-12-14T08:46:01.079Z,7.13
2022-12-14T08:48:29.139Z,6.27
2022-12-14T08:53:35.069Z,7.07
2022-12-14T08:56:05.927Z,7.00
2022-12-14T08:58:34.634Z,7.67
2022-12-14T09:01:03.763Z,6.77
2022-12-14T09:03:32.352Z,7.33
2022-12-14T09:06:03.375Z,6.43
2022-12-14T09:08:31.286Z,7.00
2022-12-14T09:11:00.457Z,7.77
2022-12-14T09:13:29.018Z,7.00
2022-12-14T09:15:58.955Z,6.17
2022-12-14T09:18:27.368Z,6.63
2022-12-14T09:20:55.903Z,7.10
2022-12-14T09:23:24.567Z,7.03
2022-12-14T09:26:01.928Z,6.73
2022-12-14T09:28:30.182Z,6.80
2022-12-14T09:30:58.457Z,6.80
2022-12-14T09:33:26.734Z,6.80
2022-12-14T09:35:55.981Z,6.60
2022-12-14T09:38:23.656Z,6.93
2022-12-14T09:40:58.113Z,7.20
2022-12-14T09:43:36.920Z,7.63
2022-12-14T09:46:14.200Z,7.90
2022-12-14T09:48:42.927Z,8.20
2022-12-14T09:53:51.372Z,6.97
2022-12-14T09:56:20.955Z,7.47
2022-12-14T09:58:55.206Z,6.57
2022-12-14T10:01:55.528Z,6.17
2022-12-14T10:04:48.070Z,5.77
2022-12-14T10:07:20.445Z,5.20
2022-12-14T10:09:50.779Z,5.73
2022-12-14T10:12:33.926Z,5.20
2022-12-14T10:15:15.579Z,5.03
2022-12-14T10:18:00.972Z,5.10
2022-12-14T10:20:36.802Z,4.67
2022-12-14T10:23:05.148Z,4.57
2022-12-14T10:25:34.506Z,4.57
2022-12-14T10:28:12.398Z,5.40
2022-12-14T10:30:43.332Z,5.00
2022-12-14T10:33:19.377Z,4.87
2022-12-14T10:35:51.935Z,4.90
2022-12-14T10:38:27.057Z,5.43
2022-12-14T10:40:58.695Z,5.80
2022-12-14T10:43:37.788Z,4.97
2022-12-14T10:46:14.573Z,4.93
2022-12-14T10:48:49.243Z,5.27
2022-12-14T10:53:54.737Z,5.20
2022-12-14T10:56:26.305Z,5.97
2022-12-14T10:59:31.150Z,6.30
2022-12-14T11:02:08.327Z,5.20
2022-12-14T11:04:38.010Z,5.43
2022-12-14T11:07:07.674Z,5.70
2022-12-14T11:09:36.146Z,5.60
2022-12-14T11:12:06.509Z,5.97
2022-12-14T11:14:34.878Z,5.40
2022-12-14T11:17:02.883Z,5.90
2022-12-14T11:19:31.920Z,5.80
2022-12-14T11:22:13.716Z,6.60
2022-12-14T11:24:49.617Z,5.87
2022-12-14T11:27:21.036Z,6.57
2022-12-14T11:29:50.469Z,5.87
2022-12-14T11:32:24.393Z,6.53
2022-12-14T11:34:59.227Z,6.53
2022-12-14T11:37:28.726Z,6.07
2022-12-14T11:39:58.480Z,6.50
2022-12-14T11:42:26.923Z,6.23
2022-12-14T11:44:55.380Z,5.77
2022-12-14T11:47:23.938Z,5.67
2022-12-14T11:49:54.285Z,5.40
2022-12-14T11:52:25.129Z,5.60
2022-12-14T11:55:12.193Z,5.27
2022-12-14T11:57:48.775Z,5.57
2022-12-14T12:00:23.138Z,5.63
2022-12-14T12:02:59.700Z,5.37
2022-12-14T12:05:28.344Z,5.03
2022-12-14T12:07:58.601Z,5.40
2022-12-14T12:10:29.170Z,6.30
2022-12-14T12:12:59.039Z,5.40
2022-12-14T12:15:29.744Z,5.17
2022-12-14T12:18:00.637Z,6.00
2022-12-14T12:20:32.019Z,5.73
2022-12-14T12:23:05.841Z,5.10
2022-12-14T12:25:37.396Z,5.20
2022-12-14T12:28:14.179Z,5.37
2022-12-14T12:30:44.453Z,4.87
2022-12-14T12:33:22.490Z,4.77
2022-12-14T12:35:51.479Z,5.03
2022-12-14T12:38:25.432Z,4.97
2022-12-14T12:40:59.196Z,4.47
2022-12-14T12:43:29.786Z,4.70
2022-12-14T12:46:00.262Z,4.23
2022-12-14T12:48:31.410Z,4.23
2022-12-14T12:51:02.345Z,4.40
2022-12-14T12:53:34.714Z,4.17
2022-12-14T12:56:08.499Z,4.53
2022-12-14T12:58:37.778Z,4.60
2022-12-14T13:01:16.980Z,4.50
2022-12-14T13:03:46.990Z,4.60
2022-12-14T13:06:17.698Z,4.33
2022-12-14T13:08:49.991Z,4.37
2022-12-14T13:11:28.817Z,4.50
2022-12-14T13:13:58.073Z,4.57
2022-12-14T13:16:29.295Z,5.00
2022-12-14T13:19:25.292Z,4.13
2022-12-14T13:21:52.079Z,4.60
2022-12-14T13:24:22.343Z,5.10
2022-12-14T13:27:24.706Z,4.67
2022-12-14T13:30:05.564Z,4.47
2022-12-14T13:32:43.829Z,5.03
2022-12-14T13:35:22.394Z,4.40
2022-12-14T13:38:18.604Z,4.93
2022-12-14T13:41:10.607Z,5.73
2022-12-14T13:43:55.552Z,5.67
2022-12-14T13:46:25.985Z,5.60
2022-12-14T13:48:55.461Z,5.40
2022-12-14T13:54:05.655Z,5.10
2022-12-14T13:56:37.911Z,5.17
2022-12-14T13:59:07.964Z,5.50
2022-12-14T14:02:00.713Z,5.10
2022-12-14T14:04:29.991Z,5.27
2022-12-14T14:07:37.412Z,4.80
2022-12-14T14:10:21.312Z,4.87
2022-12-14T14:12:49.030Z,5.00
2022-12-14T14:15:51.968Z,4.80
2022-12-14T14:18:27.921Z,5.00
2022-12-14T14:21:25.233Z,4.67
2022-12-14T14:23:59.086Z,4.53
2022-12-14T14:26:28.618Z,4.93
2022-12-14T14:29:24.589Z,4.50
2022-12-14T14:31:58.203Z,4.90
2022-12-14T14:34:49.875Z,5.00
2022-12-14T14:37:31.630Z,4.43
2022-12-14T14:40:16.832Z,4.40
2022-12-14T14:42:52.509Z,4.40
2022-12-14T14:45:29.817Z,4.00
2022-12-14T14:47:59.865Z,4.17
2022-12-14T14:50:30.643Z,3.77
2022-12-14T14:53:01.915Z,4.30
2022-12-14T14:55:54.017Z,4.47
2022-12-14T14:58:24.953Z,4.27
2022-12-14T15:00:55.456Z,4.23
2022-12-14T15:03:27.984Z,4.53
2022-12-14T15:05:55.854Z,4.70
2022-12-14T15:08:33.315Z,4.63
2022-12-14T15:11:05.510Z,4.37
2022-12-14T15:13:50.178Z,4.40
2022-12-14T15:16:28.890Z,4.53
2022-12-14T15:18:56.656Z,5.17
2022-12-14T15:21:24.391Z,5.13
2022-12-14T15:23:54.126Z,5.17
2022-12-14T15:26:25.773Z,5.00
2022-12-14T15:28:55.281Z,5.20
2022-12-14T15:31:30.303Z,5.10
2022-12-14T15:33:58.584Z,5.37
2022-12-14T15:36:29.927Z,5.57
2022-12-14T15:38:58.803Z,4.97
2022-12-14T15:41:29.986Z,5.00
2022-12-14T15:43:59.992Z,5.50
2022-12-14T15:46:29.519Z,5.87
2022-12-14T15:48:58.764Z,5.87
2022-12-14T15:51:32.854Z,5.63
2022-12-14T15:54:02.532Z,5.87
2022-12-14T15:56:33.624Z,5.57
2022-12-14T15:59:05.059Z,6.40
2022-12-14T16:01:35.998Z,7.33
2022-12-14T16:04:06.072Z,7.37
2022-12-14T16:06:37.661Z,7.17
2022-12-14T16:09:07.151Z,7.33
2022-12-14T16:11:38.818Z,8.10
2022-12-14T16:14:17.179Z,8.60
2022-12-14T16:16:45.084Z,9.57
2022-12-14T16:19:27.109Z,9.23
2022-12-14T16:22:12.508Z,8.70
2022-12-14T16:24:54.259Z,8.83
2022-12-14T16:27:23.965Z,8.07
2022-12-14T16:30:07.049Z,8.53
2022-12-14T16:32:34.773Z,8.57
2022-12-14T16:35:02.609Z,9.67
2022-12-14T16:37:36.923Z,9.37
2022-12-14T16:40:05.166Z,8.83
2022-12-14T16:42:36.967Z,9.07
2022-12-14T16:45:05.105Z,10.13
2022-12-14T16:48:01.270Z,9.30
2022-12-14T16:53:18.274Z,9.00
2022-12-14T16:56:01.456Z,9.30
2022-12-14T16:58:30.675Z,8.97
2022-12-14T17:01:00.342Z,9.27
2022-12-14T17:03:30.346Z,9.90
2022-12-14T17:06:00.842Z,9.87
2022-12-14T17:08:28.621Z,10.23
2022-12-14T17:10:56.470Z,10.20
2022-12-14T17:13:24.427Z,9.60
2022-12-14T17:15:57.931Z,9.80
2022-12-14T17:18:28.847Z,10.80
2022-12-14T17:20:56.558Z,10.77
2022-12-14T17:23:24.375Z,10.30
2022-12-14T17:25:52.518Z,10.30
2022-12-14T17:28:23.221Z,10.43
2022-12-14T17:30:51.918Z,9.67
2022-12-14T17:33:21.069Z,10.07
2022-12-14T17:35:48.859Z,9.90
2022-12-14T17:38:17.311Z,11.00
2022-12-14T17:40:46.523Z,10.33
2022-12-14T17:43:16.042Z,10.50
2022-12-14T17:45:43.830Z,10.47
2022-12-14T17:48:12.742Z,10.37
2022-12-14T17:50:42.189Z,9.77
2022-12-14T17:53:12.850Z,9.40
2022-12-14T17:55:40.552Z,9.10
2022-12-14T17:58:08.687Z,10.03
2022-12-14T18:00:53.767Z,10.03
2022-12-14T18:03:21.576Z,9.07
2022-12-14T18:05:51.222Z,8.80
2022-12-14T18:08:19.155Z,8.90
2022-12-14T18:10:47.366Z,9.07
2022-12-14T18:13:15.513Z,9.77
2022-12-14T18:15:45.852Z,9.63
2022-12-14T18:18:18.377Z,8.20
2022-12-14T18:20:49.538Z,9.10
2022-12-14T18:23:19.935Z,9.33
2022-12-14T18:25:49.533Z,8.93
2022-12-14T18:28:17.979Z,9.17
2022-12-14T18:30:49.812Z,9.50
2022-12-14T18:33:19.092Z,9.33
2022-12-14T18:35:47.474Z,9.27
2022-12-14T18:38:15.606Z,9.00
2022-12-14T18:40:49.398Z,9.33
2022-12-14T18:43:19.425Z,8.93
2022-12-14T18:45:47.211Z,9.57
2022-12-14T18:48:15.344Z,9.60
2022-12-14T18:50:43.439Z,10.07
2022-12-14T18:53:13.927Z,9.87
2022-12-14T18:55:41.925Z,10.30
2022-12-14T18:58:16.851Z,10.00
2022-12-14T19:00:44.744Z,10.30
2022-12-14T19:03:12.803Z,10.50
2022-12-14T19:05:40.740Z,11.43
2022-12-14T19:08:09.457Z,11.13
2022-12-14T19:10:39.944Z,10.20
2022-12-14T19:13:07.636Z,11.03
2022-12-14T19:15:36.672Z,10.60
2022-12-14T19:18:04.590Z,11.87
2022-12-14T19:20:32.292Z,10.83
2022-12-14T19:22:59.955Z,10.97
2022-12-14T19:25:27.608Z,11.40
2022-12-14T19:30:46.974Z,12.10
2022-12-14T19:33:14.811Z,11.10
2022-12-14T19:35:43.079Z,11.60
2022-12-14T19:38:13.877Z,12.67
2022-12-14T19:40:41.620Z,12.60
2022-12-14T19:43:09.333Z,13.00
2022-12-14T19:45:39.480Z,12.80
2022-12-14T19:48:13.003Z,12.70
2022-12-14T19:50:41.087Z,12.50
2022-12-14T19:53:08.781Z,12.67
2022-12-14T19:55:36.516Z,13.03
2022-12-14T19:58:04.326Z,12.07
2022-12-14T20:00:32.054Z,12.80
2022-12-14T20:02:59.886Z,11.23
2022-12-14T20:05:28.979Z,11.47
2022-12-14T20:07:56.632Z,12.10
2022-12-14T20:10:24.286Z,11.63
2022-12-14T20:12:51.996Z,11.07
2022-12-14T20:15:19.715Z,11.53
2022-12-14T20:17:47.382Z,11.53
2022-12-14T20:20:15.107Z,11.17
2022-12-14T20:22:44.151Z,12.23
2022-12-14T20:25:11.771Z,10.60
2022-12-14T20:27:40.972Z,10.87
2022-12-14T20:30:10.054Z,11.20
2022-12-14T20:32:37.799Z,11.63
2022-12-14T20:35:06.380Z,11.03
2022-12-14T20:37:34.124Z,11.87
2022-12-14T20:40:03.223Z,11.73
2022-12-14T20:42:30.923Z,11.03
2022-12-14T20:45:02.518Z,11.97
2022-12-14T20:47:33.020Z,11.73
2022-12-14T20:50:00.897Z,12.83
2022-12-14T20:52:30.680Z,12.77
2022-12-14T20:54:58.386Z,12.97
2022-12-14T20:57:28.382Z,13.13
2022-12-14T20:59:59.188Z,12.67
2022-12-14T21:02:27.345Z,13.10
2022-12-14T21:04:55.166Z,12.77
2022-12-14T21:07:26.084Z,14.03
2022-12-14T21:09:54.263Z,16.13
2022-12-14T21:12:21.027Z,15.67
2022-12-14T21:14:52.469Z,18.00
2022-12-14T21:17:21.051Z,16.37
2022-12-14T21:19:49.205Z,16.30
2022-12-14T21:22:19.146Z,16.03
2022-12-14T21:25:04.894Z,15.97
2022-12-14T21:27:34.509Z,15.23
2022-12-14T21:30:03.775Z,15.63
2022-12-14T21:32:31.466Z,15.80
2022-12-14T21:34:59.156Z,16.63
2022-12-14T21:37:26.963Z,15.40
2022-12-14T21:39:55.759Z,14.67
2022-12-14T21:42:23.286Z,16.30
2022-12-14T21:44:52.281Z,15.53
2022-12-14T21:47:23.134Z,16.20
2022-12-14T21:49:50.911Z,16.83
2022-12-14T21:55:00.744Z,15.20
2022-12-14T21:57:50.401Z,15.10
2022-12-14T22:00:18.950Z,14.23
2022-12-14T22:02:48.203Z,14.43
2022-12-14T22:05:16.222Z,12.53
2022-12-14T22:07:43.923Z,12.33
2022-12-14T22:10:11.651Z,11.83
2022-12-14T22:12:39.424Z,11.07
2022-12-14T22:15:08.299Z,10.90
2022-12-14T22:17:36.046Z,10.30
2022-12-14T22:20:06.073Z,10.13
2022-12-14T22:22:34.468Z,9.53
2022-12-14T22:25:02.160Z,9.53
2022-12-14T22:27:29.818Z,10.10
2022-12-14T22:29:57.504Z,9.57
2022-12-14T22:32:25.157Z,9.30
2022-12-14T22:34:52.834Z,9.17
2022-12-14T22:37:21.913Z,9.23
2022-12-14T22:39:49.566Z,9.40
2022-12-14T22:42:17.320Z,9.30
2022-12-14T22:44:45.066Z,9.73
2022-12-14T22:47:12.815Z,9.07
2022-12-14T22:49:40.636Z,9.37
2022-12-14T22:52:08.367Z,9.13
2022-12-14T22:54:38.571Z,10.43
2022-12-14T22:57:08.495Z,9.20
2022-12-14T22:59:38.032Z,9.17
2022-12-14T23:02:06.088Z,9.23
2022-12-14T23:04:33.968Z,9.03
2022-12-14T23:07:01.703Z,8.47
2022-12-14T23:09:47.111Z,9.13
2022-12-14T23:12:33.939Z,8.50
2022-12-14T23:15:19.218Z,8.23
2022-12-14T23:18:04.494Z,8.43
2022-12-14T23:20:49.878Z,9.07
2022-12-14T23:23:35.593Z,9.83
2022-12-14T23:26:21.111Z,9.00
2022-12-14T23:29:07.742Z,8.80
2022-12-14T23:31:53.095Z,8.93
2022-12-14T23:34:38.452Z,8.40
2022-12-14T23:37:23.768Z,9.20
2022-12-14T23:40:08.924Z,8.10
2022-12-14T23:42:54.138Z,9.30
2022-12-14T23:45:40.848Z,9.33
2022-12-14T23:48:25.742Z,8.40
2022-12-14T23:51:10.926Z,7.70
2022-12-14T23:53:56.334Z,7.80
2022-12-14T23:56:41.671Z,7.27
2022-12-14T23:59:31.811Z,6.57
